sensor_id;sensor_type;location;lat;lon;timestamp;pressure;altitude;pressure_sealevel;temperature;humidity
78299;BME280;67556;55.656;12.590;2023-05-17T00:01:27;101142.97;;;8.82;69.32
78299;BME280;67556;55.656;12.590;2023-05-17T00:03:54;101145.66;;;8.64;68.96
78299;BME280;67556;55.656;12.590;2023-05-17T00:06:22;101154.53;;;8.64;68.55
78299;BME280;67556;55.656;12.590;2023-05-17T00:08:55;101162.56;;;8.66;69.11
78299;BME280;67556;55.656;12.590;2023-05-17T00:11:24;101166.13;;;8.66;68.14
78299;BME280;67556;55.656;12.590;2023-05-17T00:13:51;101167.59;;;8.60;67.76
78299;BME280;67556;55.656;12.590;2023-05-17T00:16:36;101177.13;;;8.56;67.27
78299;BME280;67556;55.656;12.590;2023-05-17T00:19:03;101173.47;;;8.54;67.04
78299;BME280;67556;55.656;12.590;2023-05-17T00:21:31;101194.09;;;8.42;66.94
78299;BME280;67556;55.656;12.590;2023-05-17T00:24:00;101184.31;;;8.41;66.95
78299;BME280;67556;55.656;12.590;2023-05-17T00:26:27;101173.53;;;8.38;66.91
78299;BME280;67556;55.656;12.590;2023-05-17T00:28:53;101171.91;;;8.40;67.41
78299;BME280;67556;55.656;12.590;2023-05-17T00:31:19;101170.72;;;8.35;66.91
78299;BME280;67556;55.656;12.590;2023-05-17T00:33:46;101183.69;;;8.29;67.33
78299;BME280;67556;55.656;12.590;2023-05-17T00:36:12;101174.41;;;8.20;67.73
78299;BME280;67556;55.656;12.590;2023-05-17T00:38:39;101182.09;;;8.14;67.90
78299;BME280;67556;55.656;12.590;2023-05-17T00:41:07;101185.97;;;8.05;68.04
78299;BME280;67556;55.656;12.590;2023-05-17T00:43:34;101184.28;;;8.05;68.29
78299;BME280;67556;55.656;12.590;2023-05-17T00:46:00;101178.47;;;7.96;68.93
78299;BME280;67556;55.656;12.590;2023-05-17T00:48:27;101179.91;;;7.89;69.50
78299;BME280;67556;55.656;12.590;2023-05-17T00:51:03;101184.59;;;7.95;69.27
78299;BME280;67556;55.656;12.590;2023-05-17T00:53:36;101188.72;;;8.06;69.06
78299;BME280;67556;55.656;12.590;2023-05-17T00:56:10;101189.31;;;8.00;69.42
78299;BME280;67556;55.656;12.590;2023-05-17T00:58:45;101178.22;;;7.91;69.58
78299;BME280;67556;55.656;12.590;2023-05-17T01:01:18;101189.59;;;7.89;69.65
78299;BME280;67556;55.656;12.590;2023-05-17T01:03:48;101199.00;;;8.00;69.31
78299;BME280;67556;55.656;12.590;2023-05-17T01:06:16;101208.72;;;7.99;69.74
78299;BME280;67556;55.656;12.590;2023-05-17T01:08:43;101189.91;;;7.95;69.66
78299;BME280;67556;55.656;12.590;2023-05-17T01:11:33;101203.34;;;7.98;69.60
78299;BME280;67556;55.656;12.590;2023-05-17T01:14:19;101196.00;;;7.92;69.45
78299;BME280;67556;55.656;12.590;2023-05-17T01:17:00;101202.03;;;7.90;68.53
78299;BME280;67556;55.656;12.590;2023-05-17T01:19:47;101211.13;;;7.95;69.10
78299;BME280;67556;55.656;12.590;2023-05-17T01:22:21;101205.28;;;7.84;69.16
78299;BME280;67556;55.656;12.590;2023-05-17T01:25:09;101215.78;;;7.83;68.45
78299;BME280;67556;55.656;12.590;2023-05-17T01:27:40;101225.31;;;7.79;67.75
78299;BME280;67556;55.656;12.590;2023-05-17T01:30:12;101231.88;;;7.86;67.71
78299;BME280;67556;55.656;12.590;2023-05-17T01:32:40;101230.38;;;7.91;67.53
78299;BME280;67556;55.656;12.590;2023-05-17T01:35:10;101230.06;;;7.85;66.65
78299;BME280;67556;55.656;12.590;2023-05-17T01:37:37;101240.66;;;7.85;66.81
78299;BME280;67556;55.656;12.590;2023-05-17T01:40:04;101240.66;;;7.85;67.42
78299;BME280;67556;55.656;12.590;2023-05-17T01:42:41;101239.16;;;7.73;67.15
78299;BME280;67556;55.656;12.590;2023-05-17T01:45:13;101244.53;;;7.75;67.00
78299;BME280;67556;55.656;12.590;2023-05-17T01:47:47;101248.44;;;7.65;66.28
78299;BME280;67556;55.656;12.590;2023-05-17T01:50:23;101235.63;;;7.57;66.02
78299;BME280;67556;55.656;12.590;2023-05-17T01:52:52;101246.16;;;7.55;65.36
78299;BME280;67556;55.656;12.590;2023-05-17T01:55:31;101267.19;;;7.52;65.71
78299;BME280;67556;55.656;12.590;2023-05-17T01:58:02;101259.03;;;7.49;65.44
78299;BME280;67556;55.656;12.590;2023-05-17T02:00:32;101283.56;;;7.45;65.63
78299;BME280;67556;55.656;12.590;2023-05-17T02:02:59;101292.16;;;7.41;65.80
78299;BME280;67556;55.656;12.590;2023-05-17T02:05:26;101281.66;;;7.42;65.99
78299;BME280;67556;55.656;12.590;2023-05-17T02:07:52;101271.28;;;7.31;65.62
78299;BME280;67556;55.656;12.590;2023-05-17T02:10:19;101290.50;;;7.27;64.61
78299;BME280;67556;55.656;12.590;2023-05-17T02:12:45;101276.41;;;7.28;64.70
78299;BME280;67556;55.656;12.590;2023-05-17T02:15:19;101283.78;;;7.17;63.90
78299;BME280;67556;55.656;12.590;2023-05-17T02:17:51;101289.81;;;7.14;64.53
78299;BME280;67556;55.656;12.590;2023-05-17T02:20:18;101285.06;;;7.09;63.68
78299;BME280;67556;55.656;12.590;2023-05-17T02:22:45;101288.53;;;7.08;63.59
78299;BME280;67556;55.656;12.590;2023-05-17T02:25:11;101282.44;;;7.09;63.90
78299;BME280;67556;55.656;12.590;2023-05-17T02:27:37;101302.34;;;7.02;63.92
78299;BME280;67556;55.656;12.590;2023-05-17T02:30:06;101283.63;;;6.99;63.81
78299;BME280;67556;55.656;12.590;2023-05-17T02:32:36;101292.59;;;6.86;64.15
78299;BME280;67556;55.656;12.590;2023-05-17T02:35:04;101281.75;;;6.82;63.92
78299;BME280;67556;55.656;12.590;2023-05-17T02:37:36;101292.25;;;6.80;63.54
78299;BME280;67556;55.656;12.590;2023-05-17T02:40:04;101301.81;;;6.78;62.71
78299;BME280;67556;55.656;12.590;2023-05-17T02:42:35;101279.47;;;6.73;62.33
78299;BME280;67556;55.656;12.590;2023-05-17T02:45:03;101300.66;;;6.73;62.49
78299;BME280;67556;55.656;12.590;2023-05-17T02:47:30;101295.94;;;6.67;61.73
78299;BME280;67556;55.656;12.590;2023-05-17T02:49:58;101298.56;;;6.67;61.80
78299;BME280;67556;55.656;12.590;2023-05-17T02:52:25;101306.88;;;6.59;62.03
78299;BME280;67556;55.656;12.590;2023-05-17T02:54:51;101309.97;;;6.52;61.21
78299;BME280;67556;55.656;12.590;2023-05-17T02:57:18;101322.13;;;6.48;61.34
78299;BME280;67556;55.656;12.590;2023-05-17T02:59:44;101316.19;;;6.52;60.86
78299;BME280;67556;55.656;12.590;2023-05-17T03:02:10;101314.19;;;6.48;61.55
78299;BME280;67556;55.656;12.590;2023-05-17T03:04:37;101302.50;;;6.44;61.49
78299;BME280;67556;55.656;12.590;2023-05-17T03:07:12;101306.16;;;6.46;62.25
78299;BME280;67556;55.656;12.590;2023-05-17T03:09:42;101319.47;;;6.48;61.62
78299;BME280;67556;55.656;12.590;2023-05-17T03:12:15;101328.31;;;6.48;61.97
78299;BME280;67556;55.656;12.590;2023-05-17T03:14:43;101337.91;;;6.46;61.77
78299;BME280;67556;55.656;12.590;2023-05-17T03:17:16;101330.97;;;6.48;61.15
78299;BME280;67556;55.656;12.590;2023-05-17T03:19:48;101329.78;;;6.43;60.48
78299;BME280;67556;55.656;12.590;2023-05-17T03:22:22;101336.53;;;6.38;59.85
78299;BME280;67556;55.656;12.590;2023-05-17T03:24:48;101361.25;;;6.39;58.77
78299;BME280;67556;55.656;12.590;2023-05-17T03:27:25;101341.75;;;6.37;59.32
78299;BME280;67556;55.656;12.590;2023-05-17T03:29:54;101350.59;;;6.37;59.17
78299;BME280;67556;55.656;12.590;2023-05-17T03:32:29;101347.03;;;6.37;59.36
78299;BME280;67556;55.656;12.590;2023-05-17T03:34:56;101355.97;;;6.39;58.66
78299;BME280;67556;55.656;12.590;2023-05-17T03:37:30;101350.66;;;6.39;58.57
78299;BME280;67556;55.656;12.590;2023-05-17T03:39:56;101355.97;;;6.39;58.34
78299;BME280;67556;55.656;12.590;2023-05-17T03:42:29;101356.97;;;6.41;57.73
78299;BME280;67556;55.656;12.590;2023-05-17T03:44:56;101363.06;;;6.40;58.49
78299;BME280;67556;55.656;12.590;2023-05-17T03:47:24;101354.69;;;6.47;58.39
78299;BME280;67556;55.656;12.590;2023-05-17T03:49:51;101369.94;;;6.51;58.65
78299;BME280;67556;55.656;12.590;2023-05-17T03:52:17;101367.50;;;6.54;58.75
78299;BME280;67556;55.656;12.590;2023-05-17T03:54:45;101371.22;;;6.58;58.70
78299;BME280;67556;55.656;12.590;2023-05-17T03:57:17;101384.09;;;6.66;58.71
78299;BME280;67556;55.656;12.590;2023-05-17T03:59:44;101386.81;;;6.68;58.72
78299;BME280;67556;55.656;12.590;2023-05-17T04:02:11;101387.81;;;6.70;58.71
78299;BME280;67556;55.656;12.590;2023-05-17T04:04:37;101382.44;;;6.68;58.74
78299;BME280;67556;55.656;12.590;2023-05-17T04:07:04;101382.16;;;6.64;57.28
78299;BME280;67556;55.656;12.590;2023-05-17T04:09:37;101387.53;;;6.65;56.28
78299;BME280;67556;55.656;12.590;2023-05-17T04:12:06;101382.88;;;6.61;55.95
78299;BME280;67556;55.656;12.590;2023-05-17T04:14:33;101384.91;;;6.65;55.87
78299;BME280;67556;55.656;12.590;2023-05-17T04:16:59;101376.97;;;6.65;55.55
78299;BME280;67556;55.656;12.590;2023-05-17T04:19:27;101391.84;;;6.63;55.38
78299;BME280;67556;55.656;12.590;2023-05-17T04:21:54;101397.22;;;6.65;55.67
78299;BME280;67556;55.656;12.590;2023-05-17T04:24:22;101397.41;;;6.68;55.70
78299;BME280;67556;55.656;12.590;2023-05-17T04:26:54;101399.88;;;6.65;55.26
78299;BME280;67556;55.656;12.590;2023-05-17T04:29:22;101403.00;;;6.72;55.39
78299;BME280;67556;55.656;12.590;2023-05-17T04:31:48;101408.91;;;6.68;55.29
78299;BME280;67556;55.656;12.590;2023-05-17T04:34:15;101398.72;;;6.74;55.10
78299;BME280;67556;55.656;12.590;2023-05-17T04:36:48;101412.03;;;6.76;54.75
78299;BME280;67556;55.656;12.590;2023-05-17T04:39:28;101416.22;;;6.72;54.83
78299;BME280;67556;55.656;12.590;2023-05-17T04:41:57;101413.13;;;6.80;54.52
78299;BME280;67556;55.656;12.590;2023-05-17T04:44:43;101413.97;;;6.79;54.49
78299;BME280;67556;55.656;12.590;2023-05-17T04:47:10;101440.59;;;6.82;54.55
78299;BME280;67556;55.656;12.590;2023-05-17T04:49:50;101441.97;;;6.90;54.97
78299;BME280;67556;55.656;12.590;2023-05-17T04:52:23;101447.00;;;6.85;55.00
78299;BME280;67556;55.656;12.590;2023-05-17T04:54:50;101446.63;;;6.79;54.50
78299;BME280;67556;55.656;12.590;2023-05-17T04:57:18;101437.31;;;6.86;54.75
78299;BME280;67556;55.656;12.590;2023-05-17T04:59:46;101453.59;;;6.92;54.39
78299;BME280;67556;55.656;12.590;2023-05-17T05:02:32;101460.69;;;6.93;54.40
78299;BME280;67556;55.656;12.590;2023-05-17T05:04:59;101450.03;;;6.91;53.74
78299;BME280;67556;55.656;12.590;2023-05-17T05:07:39;101458.88;;;6.92;53.70
78299;BME280;67556;55.656;12.590;2023-05-17T05:10:12;101466.28;;;6.97;54.20
78299;BME280;67556;55.656;12.590;2023-05-17T05:12:39;101482.25;;;6.99;52.73
78299;BME280;67556;55.656;12.590;2023-05-17T05:15:14;101470.84;;;7.00;53.30
78299;BME280;67556;55.656;12.590;2023-05-17T05:17:41;101474.03;;;7.09;53.33
78299;BME280;67556;55.656;12.590;2023-05-17T05:20:09;101506.09;;;7.14;53.37
78299;BME280;67556;55.656;12.590;2023-05-17T05:22:35;101488.66;;;7.17;53.19
78299;BME280;67556;55.656;12.590;2023-05-17T05:25:09;101496.63;;;7.17;53.22
78299;BME280;67556;55.656;12.590;2023-05-17T05:27:36;101483.44;;;7.19;53.35
78299;BME280;67556;55.656;12.590;2023-05-17T05:30:03;101504.47;;;7.31;53.65
78299;BME280;67556;55.656;12.590;2023-05-17T05:32:37;101508.09;;;7.33;53.53
78299;BME280;67556;55.656;12.590;2023-05-17T05:35:04;101525.22;;;7.38;53.29
78299;BME280;67556;55.656;12.590;2023-05-17T05:37:32;101522.00;;;7.43;52.85
78299;BME280;67556;55.656;12.590;2023-05-17T05:39:58;101533.50;;;7.44;52.73
78299;BME280;67556;55.656;12.590;2023-05-17T05:42:24;101522.91;;;7.44;53.02
78299;BME280;67556;55.656;12.590;2023-05-17T05:44:52;101530.22;;;7.48;52.82
78299;BME280;67556;55.656;12.590;2023-05-17T05:47:19;101546.47;;;7.54;53.36
78299;BME280;67556;55.656;12.590;2023-05-17T05:49:47;101531.88;;;7.46;52.37
78299;BME280;67556;55.656;12.590;2023-05-17T05:52:13;101529.13;;;7.59;52.85
78299;BME280;67556;55.656;12.590;2023-05-17T05:54:39;101529.84;;;7.71;52.44
78299;BME280;67556;55.656;12.590;2023-05-17T05:57:12;101544.09;;;7.73;52.06
78299;BME280;67556;55.656;12.590;2023-05-17T05:59:54;101549.31;;;7.72;52.22
78299;BME280;67556;55.656;12.590;2023-05-17T06:02:27;101554.63;;;7.72;52.44
78299;BME280;67556;55.656;12.590;2023-05-17T06:05:01;101557.28;;;7.72;52.94
78299;BME280;67556;55.656;12.590;2023-05-17T06:07:27;101558.00;;;7.84;52.36
78299;BME280;67556;55.656;12.590;2023-05-17T06:09:56;101564.22;;;7.70;51.90
78299;BME280;67556;55.656;12.590;2023-05-17T06:12:26;101563.19;;;7.83;51.93
78299;BME280;67556;55.656;12.590;2023-05-17T06:14:52;101555.03;;;7.94;51.35
78299;BME280;67556;55.656;12.590;2023-05-17T06:17:19;101558.66;;;8.11;50.47
78299;BME280;67556;55.656;12.590;2023-05-17T06:19:46;101574.69;;;7.98;49.59
78299;BME280;67556;55.656;12.590;2023-05-17T06:22:14;101572.38;;;8.04;49.30
78299;BME280;67556;55.656;12.590;2023-05-17T06:24:55;101581.38;;;8.06;49.08
78299;BME280;67556;55.656;12.590;2023-05-17T06:27:21;101594.38;;;7.87;48.79
78299;BME280;67556;55.656;12.590;2023-05-17T06:29:47;101581.88;;;7.84;49.76
78299;BME280;67556;55.656;12.590;2023-05-17T06:32:15;101585.75;;;7.91;49.73
78299;BME280;67556;55.656;12.590;2023-05-17T06:34:56;101592.44;;;7.99;48.87
78299;BME280;67556;55.656;12.590;2023-05-17T06:37:24;101589.69;;;7.97;48.99
78299;BME280;67556;55.656;12.590;2023-05-17T06:39:51;101598.75;;;8.01;49.24
78299;BME280;67556;55.656;12.590;2023-05-17T06:42:18;101595.47;;;8.05;50.06
78299;BME280;67556;55.656;12.590;2023-05-17T06:44:59;101594.56;;;8.21;50.31
78299;BME280;67556;55.656;12.590;2023-05-17T06:47:26;101605.16;;;8.36;49.36
78299;BME280;67556;55.656;12.590;2023-05-17T06:49:52;101602.72;;;8.24;49.75
78299;BME280;67556;55.656;12.590;2023-05-17T06:52:21;101600.97;;;8.24;50.15
78299;BME280;67556;55.656;12.590;2023-05-17T06:54:52;101617.75;;;8.23;50.14
78299;BME280;67556;55.656;12.590;2023-05-17T06:57:18;101629.34;;;8.25;49.90
78299;BME280;67556;55.656;12.590;2023-05-17T06:59:47;101629.84;;;8.18;49.64
78299;BME280;67556;55.656;12.590;2023-05-17T07:02:19;101623.56;;;8.33;49.50
78299;BME280;67556;55.656;12.590;2023-05-17T07:04:46;101628.34;;;8.38;49.75
78299;BME280;67556;55.656;12.590;2023-05-17T07:07:13;101640.81;;;8.39;48.53
78299;BME280;67556;55.656;12.590;2023-05-17T07:09:39;101641.34;;;8.19;49.20
78299;BME280;67556;55.656;12.590;2023-05-17T07:12:19;101638.78;;;8.20;49.27
78299;BME280;67556;55.656;12.590;2023-05-17T07:14:56;101647.91;;;8.25;48.83
78299;BME280;67556;55.656;12.590;2023-05-17T07:17:23;101662.47;;;8.32;48.04
78299;BME280;67556;55.656;12.590;2023-05-17T07:19:50;101636.84;;;8.47;48.41
78299;BME280;67556;55.656;12.590;2023-05-17T07:22:20;101659.66;;;8.44;48.22
78299;BME280;67556;55.656;12.590;2023-05-17T07:24:47;101660.81;;;8.49;48.81
78299;BME280;67556;55.656;12.590;2023-05-17T07:27:13;101656.50;;;8.51;48.92
78299;BME280;67556;55.656;12.590;2023-05-17T07:29:43;101668.56;;;8.61;48.28
78299;BME280;67556;55.656;12.590;2023-05-17T07:32:09;101681.19;;;8.65;47.78
78299;BME280;67556;55.656;12.590;2023-05-17T07:34:45;101675.78;;;8.63;47.77
78299;BME280;67556;55.656;12.590;2023-05-17T07:37:11;101692.28;;;8.72;48.27
78299;BME280;67556;55.656;12.590;2023-05-17T07:39:41;101691.06;;;8.67;46.76
78299;BME280;67556;55.656;12.590;2023-05-17T07:42:08;101700.00;;;8.53;46.18
78299;BME280;67556;55.656;12.590;2023-05-17T07:44:48;101698.19;;;8.52;45.95
78299;BME280;67556;55.656;12.590;2023-05-17T07:47:21;101706.00;;;8.65;47.54
78299;BME280;67556;55.656;12.590;2023-05-17T07:49:49;101709.88;;;8.87;48.76
78299;BME280;67556;55.656;12.590;2023-05-17T07:52:16;101695.97;;;8.76;47.69
78299;BME280;67556;55.656;12.590;2023-05-17T07:54:42;101715.94;;;8.84;47.14
78299;BME280;67556;55.656;12.590;2023-05-17T07:57:23;101710.69;;;8.69;44.76
78299;BME280;67556;55.656;12.590;2023-05-17T07:59:52;101716.81;;;8.68;44.95
78299;BME280;67556;55.656;12.590;2023-05-17T08:02:22;101723.50;;;8.77;43.93
78299;BME280;67556;55.656;12.590;2023-05-17T08:04:48;101725.56;;;8.82;43.91
78299;BME280;67556;55.656;12.590;2023-05-17T08:07:15;101724.53;;;8.95;45.15
78299;BME280;67556;55.656;12.590;2023-05-17T08:09:43;101756.78;;;8.86;44.25
78299;BME280;67556;55.656;12.590;2023-05-17T08:12:10;101734.31;;;8.96;44.55
78299;BME280;67556;55.656;12.590;2023-05-17T08:14:37;101738.69;;;9.10;44.10
78299;BME280;67556;55.656;12.590;2023-05-17T08:17:12;101759.53;;;8.88;43.90
78299;BME280;67556;55.656;12.590;2023-05-17T08:19:38;101749.47;;;8.82;44.63
78299;BME280;67556;55.656;12.590;2023-05-17T08:22:05;101752.06;;;8.81;44.15
78299;BME280;67556;55.656;12.590;2023-05-17T08:24:32;101747.00;;;9.02;44.16
78299;BME280;67556;55.656;12.590;2023-05-17T08:26:58;101758.59;;;9.02;44.38
78299;BME280;67556;55.656;12.590;2023-05-17T08:29:25;101774.44;;;9.00;45.51
78299;BME280;67556;55.656;12.590;2023-05-17T08:31:53;101751.78;;;9.07;45.48
78299;BME280;67556;55.656;12.590;2023-05-17T08:34:42;101766.16;;;9.11;45.64
78299;BME280;67556;55.656;12.590;2023-05-17T08:37:08;101766.97;;;9.10;44.98
78299;BME280;67556;55.656;12.590;2023-05-17T08:39:52;101780.88;;;9.20;45.86
78299;BME280;67556;55.656;12.590;2023-05-17T08:42:25;101787.69;;;9.15;45.38
78299;BME280;67556;55.656;12.590;2023-05-17T08:45:12;101770.91;;;9.16;45.87
78299;BME280;67556;55.656;12.590;2023-05-17T08:47:41;101779.56;;;9.29;45.93
78299;BME280;67556;55.656;12.590;2023-05-17T08:50:15;101783.09;;;9.44;44.46
78299;BME280;67556;55.656;12.590;2023-05-17T08:52:44;101784.41;;;9.36;44.20
78299;BME280;67556;55.656;12.590;2023-05-17T08:55:12;101799.69;;;9.40;44.60
78299;BME280;67556;55.656;12.590;2023-05-17T08:57:46;101801.78;;;9.45;44.75
78299;BME280;67556;55.656;12.590;2023-05-17T09:00:33;101820.91;;;9.55;41.95
78299;BME280;67556;55.656;12.590;2023-05-17T09:03:20;101804.72;;;9.35;41.65
78299;BME280;67556;55.656;12.590;2023-05-17T09:05:50;101813.00;;;9.56;43.19
78299;BME280;67556;55.656;12.590;2023-05-17T09:08:18;101832.25;;;9.52;43.36
78299;BME280;67556;55.656;12.590;2023-05-17T09:10:45;101840.91;;;9.17;44.64
78299;BME280;67556;55.656;12.590;2023-05-17T09:13:27;101819.13;;;9.39;43.86
78299;BME280;67556;55.656;12.590;2023-05-17T09:15:53;101827.16;;;9.71;41.97
78299;BME280;67556;55.656;12.590;2023-05-17T09:18:28;101836.81;;;9.69;43.11
78299;BME280;67556;55.656;12.590;2023-05-17T09:21:01;101832.97;;;9.81;41.89
78299;BME280;67556;55.656;12.590;2023-05-17T09:23:37;101830.66;;;9.87;41.33
78299;BME280;67556;55.656;12.590;2023-05-17T09:26:03;101848.28;;;9.85;42.44
78299;BME280;67556;55.656;12.590;2023-05-17T09:28:37;101852.59;;;9.66;39.50
78299;BME280;67556;55.656;12.590;2023-05-17T09:31:05;101857.72;;;9.63;39.88
78299;BME280;67556;55.656;12.590;2023-05-17T09:33:32;101854.59;;;9.70;39.97
78299;BME280;67556;55.656;12.590;2023-05-17T09:36:19;101874.03;;;9.86;40.06
78299;BME280;67556;55.656;12.590;2023-05-17T09:38:59;101857.75;;;9.80;40.15
78299;BME280;67556;55.656;12.590;2023-05-17T09:41:26;101860.19;;;10.08;41.54
78299;BME280;67556;55.656;12.590;2023-05-17T09:43:57;101856.84;;;10.12;41.70
78299;BME280;67556;55.656;12.590;2023-05-17T09:46:24;101873.38;;;10.22;41.88
78299;BME280;67556;55.656;12.590;2023-05-17T09:52:22;101868.72;;;10.18;40.53
78299;BME280;67556;55.656;12.590;2023-05-17T09:54:53;101883.13;;;10.22;39.21
78299;BME280;67556;55.656;12.590;2023-05-17T09:57:36;101871.00;;;10.27;39.80
78299;BME280;67556;55.656;12.590;2023-05-17T10:00:04;101868.44;;;10.45;39.38
78299;BME280;67556;55.656;12.590;2023-05-17T10:02:35;101887.41;;;10.69;39.93
78299;BME280;67556;55.656;12.590;2023-05-17T10:05:03;101911.09;;;10.46;39.34
78299;BME280;67556;55.656;12.590;2023-05-17T10:07:33;101886.03;;;10.59;39.30
78299;BME280;67556;55.656;12.590;2023-05-17T10:10:00;101888.19;;;10.66;38.12
78299;BME280;67556;55.656;12.590;2023-05-17T10:12:31;101895.66;;;10.73;38.14
78299;BME280;67556;55.656;12.590;2023-05-17T10:15:00;101894.97;;;10.78;37.41
78299;BME280;67556;55.656;12.590;2023-05-17T10:17:27;101892.78;;;10.87;38.82
78299;BME280;67556;55.656;12.590;2023-05-17T10:20:02;101901.72;;;11.05;39.44
78299;BME280;67556;55.656;12.590;2023-05-17T10:22:36;101904.25;;;11.02;39.67
78299;BME280;67556;55.656;12.590;2023-05-17T10:25:06;101918.47;;;10.68;39.17
78299;BME280;67556;55.656;12.590;2023-05-17T10:27:33;101923.34;;;10.59;39.57
78299;BME280;67556;55.656;12.590;2023-05-17T10:30:07;101921.50;;;10.58;38.43
78299;BME280;67556;55.656;12.590;2023-05-17T10:32:34;101913.28;;;10.88;38.25
78299;BME280;67556;55.656;12.590;2023-05-17T10:35:02;101933.13;;;10.77;39.08
78299;BME280;67556;55.656;12.590;2023-05-17T10:37:29;101915.09;;;10.89;38.74
78299;BME280;67556;55.656;12.590;2023-05-17T10:39:59;101922.22;;;11.06;39.62
78299;BME280;67556;55.656;12.590;2023-05-17T10:42:32;101920.16;;;11.01;39.03
78299;BME280;67556;55.656;12.590;2023-05-17T10:45:00;101919.59;;;10.90;39.56
78299;BME280;67556;55.656;12.590;2023-05-17T10:47:30;101925.25;;;10.96;39.16
78299;BME280;67556;55.656;12.590;2023-05-17T10:49:57;101938.28;;;10.73;39.41
78299;BME280;67556;55.656;12.590;2023-05-17T10:52:26;101955.09;;;10.89;39.20
78299;BME280;67556;55.656;12.590;2023-05-17T10:54:52;101941.47;;;10.66;39.39
78299;BME280;67556;55.656;12.590;2023-05-17T10:57:31;101938.41;;;10.59;40.59
78299;BME280;67556;55.656;12.590;2023-05-17T10:59:59;101931.38;;;10.77;40.38
78299;BME280;67556;55.656;12.590;2023-05-17T11:02:31;101932.38;;;10.79;39.91
78299;BME280;67556;55.656;12.590;2023-05-17T11:04:57;101956.25;;;10.78;39.72
78299;BME280;67556;55.656;12.590;2023-05-17T11:07:26;101939.13;;;11.07;39.24
78299;BME280;67556;55.656;12.590;2023-05-17T11:09:55;101938.56;;;11.30;37.43
78299;BME280;67556;55.656;12.590;2023-05-17T11:12:33;101917.50;;;11.18;37.73
78299;BME280;67556;55.656;12.590;2023-05-17T11:15:03;101948.53;;;11.34;38.50
78299;BME280;67556;55.656;12.590;2023-05-17T11:17:34;101952.94;;;10.82;39.09
78299;BME280;67556;55.656;12.590;2023-05-17T11:20:08;101964.94;;;10.73;39.17
78299;BME280;67556;55.656;12.590;2023-05-17T11:22:40;101969.25;;;10.88;39.60
78299;BME280;67556;55.656;12.590;2023-05-17T11:25:11;101967.13;;;10.98;38.74
78299;BME280;67556;55.656;12.590;2023-05-17T11:27:44;101956.75;;;11.21;37.92
78299;BME280;67556;55.656;12.590;2023-05-17T11:30:22;101967.47;;;11.05;38.02
78299;BME280;67556;55.656;12.590;2023-05-17T11:32:53;101943.09;;;10.97;38.82
78299;BME280;67556;55.656;12.590;2023-05-17T11:35:24;101954.16;;;11.05;37.25
78299;BME280;67556;55.656;12.590;2023-05-17T11:37:51;101965.50;;;11.01;36.84
78299;BME280;67556;55.656;12.590;2023-05-17T11:40:25;101959.25;;;11.18;36.94
78299;BME280;67556;55.656;12.590;2023-05-17T11:43:13;101968.41;;;11.23;37.24
78299;BME280;67556;55.656;12.590;2023-05-17T11:45:45;101960.41;;;11.23;37.68
78299;BME280;67556;55.656;12.590;2023-05-17T11:48:14;101971.47;;;11.31;37.51
78299;BME280;67556;55.656;12.590;2023-05-17T11:50:45;101984.69;;;11.11;37.90
78299;BME280;67556;55.656;12.590;2023-05-17T11:53:22;101979.34;;;11.11;37.63
78299;BME280;67556;55.656;12.590;2023-05-17T11:55:51;101972.63;;;11.36;37.88
78299;BME280;67556;55.656;12.590;2023-05-17T11:58:23;101977.44;;;11.43;38.26
78299;BME280;67556;55.656;12.590;2023-05-17T12:01:00;101973.75;;;11.41;37.47
78299;BME280;67556;55.656;12.590;2023-05-17T12:03:34;101974.66;;;11.41;36.33
78299;BME280;67556;55.656;12.590;2023-05-17T12:06:14;101985.09;;;11.37;35.82
78299;BME280;67556;55.656;12.590;2023-05-17T12:08:43;101990.38;;;11.53;36.42
78299;BME280;67556;55.656;12.590;2023-05-17T12:11:12;101973.00;;;11.79;36.75
78299;BME280;67556;55.656;12.590;2023-05-17T12:13:46;101997.41;;;11.69;36.05
78299;BME280;67556;55.656;12.590;2023-05-17T12:16:14;102016.31;;;11.73;37.22
78299;BME280;67556;55.656;12.590;2023-05-17T12:18:43;101986.28;;;11.78;36.50
78299;BME280;67556;55.656;12.590;2023-05-17T12:21:17;102009.75;;;11.67;35.46
78299;BME280;67556;55.656;12.590;2023-05-17T12:23:49;102000.75;;;11.47;34.75
78299;BME280;67556;55.656;12.590;2023-05-17T12:26:22;102012.69;;;11.37;35.53
78299;BME280;67556;55.656;12.590;2023-05-17T12:28:56;102024.41;;;11.23;36.08
78299;BME280;67556;55.656;12.590;2023-05-17T12:31:25;102021.44;;;11.69;35.84
78299;BME280;67556;55.656;12.590;2023-05-17T12:33:53;102007.63;;;11.60;35.84
78299;BME280;67556;55.656;12.590;2023-05-17T12:36:20;102002.59;;;11.84;34.80
78299;BME280;67556;55.656;12.590;2023-05-17T12:38:48;102026.78;;;12.05;34.66
78299;BME280;67556;55.656;12.590;2023-05-17T12:41:15;102029.38;;;12.03;35.23
78299;BME280;67556;55.656;12.590;2023-05-17T12:43:44;102025.13;;;12.26;35.97
78299;BME280;67556;55.656;12.590;2023-05-17T12:46:21;102016.19;;;12.06;35.87
78299;BME280;67556;55.656;12.590;2023-05-17T12:48:49;102010.69;;;12.03;35.05
78299;BME280;67556;55.656;12.590;2023-05-17T12:51:22;102010.53;;;12.18;35.99
78299;BME280;67556;55.656;12.590;2023-05-17T12:53:56;102031.59;;;11.76;35.95
78299;BME280;67556;55.656;12.590;2023-05-17T12:56:26;102031.16;;;11.85;36.68
78299;BME280;67556;55.656;12.590;2023-05-17T12:59:11;102019.19;;;12.32;34.10
78299;BME280;67556;55.656;12.590;2023-05-17T13:01:42;102022.13;;;12.56;33.87
78299;BME280;67556;55.656;12.590;2023-05-17T13:04:09;102009.66;;;12.56;33.96
78299;BME280;67556;55.656;12.590;2023-05-17T13:06:45;102030.81;;;12.71;32.40
78299;BME280;67556;55.656;12.590;2023-05-17T13:09:13;102017.97;;;12.82;33.07